Time;durP1;ratioP1;P1;durP2;ratioP2;P2;SDS_P1;SDS_P2;PMS_P1;PMS_P2;Temp;Humidity;BMP_temperature;BMP_pressure;BME280_temperature;BME280_humidity;BME280_pressure;Samples;Min_cycle;Max_cycle;Signal;HPM_P1;HPM_P2
2022/06/27 00:00:31;;;;;;;2.4;2.2;;;;;;;18.09;68.19824;94862.44;;;;
2022/06/27 00:01:32;;;;;;;2.4;2.2;;;;;;;18.09;68.19824;94862.44;;;;
2022/06/27 00:02:32;;;;;;;2.4;2.2;;;;;;;18.09;68.19824;94862.44;;;;
2022/06/27 00:03:33;;;;;;;2.4;2.2;;;;;;;18.09;68.19824;94862.44;;;;
2022/06/27 00:04:33;;;;;;;2.4;2.2;;;;;;;18.09;68.19824;94862.44;;;;
2022/06/27 00:05:34;;;;;;;2.4;2.2;;;;;;;18.09;68.19824;94862.44;;;;
2022/06/27 00:06:34;;;;;;;2.4;2.2;;;;;;;18.09;68.19824;94862.44;;;;
2022/06/27 00:07:35;;;;;;;2.4;2.2;;;;;;;18.09;68.19824;94862.44;;;;
2022/06/27 00:08:36;;;;;;;2.5;2.299999;;;;;;;18.01;68.66797;94848.42;;;;
2022/06/27 00:09:36;;;;;;;2.5;2.299999;;;;;;;18.01;68.66797;94848.42;;;;
2022/06/27 00:10:36;;;;;;;2.5;2.299999;;;;;;;18.01;68.66797;94848.42;;;;
2022/06/27 00:11:39;;;;;;;2.5;2.299999;;;;;;;18.01;68.66797;94848.42;;;;
2022/06/27 00:12:39;;;;;;;2.5;2.299999;;;;;;;18.01;68.66797;94848.42;;;;
2022/06/27 00:13:40;;;;;;;2.5;2.299999;;;;;;;18.01;68.66797;94848.42;;;;
2022/06/27 00:14:41;;;;;;;2.5;2.299999;;;;;;;18.01;68.66797;94848.42;;;;
2022/06/27 00:15:41;;;;;;;2.5;2.299999;;;;;;;18.01;68.66797;94848.42;;;;
2022/06/27 00:16:42;;;;;;;2.5;2.299999;;;;;;;18.01;68.66797;94848.42;;;;
2022/06/27 00:17:42;;;;;;;2.5;2.299999;;;;;;;18.01;68.66797;94848.42;;;;
2022/06/27 00:18:43;;;;;;;2.5;2.299999;;;;;;;18.01;68.66797;94848.42;;;;
2022/06/27 00:19:43;;;;;;;3.1;2;;;;;;;17.85;69.07227;94836.91;;;;
2022/06/27 00:20:44;;;;;;;3.1;2;;;;;;;17.85;69.07227;94836.91;;;;
2022/06/27 00:21:45;;;;;;;3.1;2;;;;;;;17.85;69.07227;94836.91;;;;
2022/06/27 00:22:45;;;;;;;3.1;2;;;;;;;17.85;69.07227;94836.91;;;;
2022/06/27 00:23:46;;;;;;;3.1;2;;;;;;;17.85;69.07227;94836.91;;;;
2022/06/27 00:24:46;;;;;;;3.1;2;;;;;;;17.85;69.07227;94836.91;;;;
2022/06/27 00:25:47;;;;;;;3.1;2;;;;;;;17.85;69.07227;94836.91;;;;
2022/06/27 00:26:48;;;;;;;3.1;2;;;;;;;17.85;69.07227;94836.91;;;;
2022/06/27 00:27:49;;;;;;;3.1;2;;;;;;;17.85;69.07227;94836.91;;;;
2022/06/27 00:28:49;;;;;;;3.1;2;;;;;;;17.85;69.07227;94836.91;;;;
2022/06/27 00:29:50;;;;;;;3.1;2;;;;;;;17.85;69.07227;94836.91;;;;
2022/06/27 00:30:50;;;;;;;2.4;2.2;;;;;;;17.81;69.47168;94836.66;;;;
2022/06/27 00:31:51;;;;;;;2.4;2.2;;;;;;;17.81;69.47168;94836.66;;;;
2022/06/27 00:32:51;;;;;;;2.4;2.2;;;;;;;17.81;69.47168;94836.66;;;;
2022/06/27 00:33:52;;;;;;;2.4;2.2;;;;;;;17.81;69.47168;94836.66;;;;
2022/06/27 00:34:53;;;;;;;2.4;2.2;;;;;;;17.81;69.47168;94836.66;;;;
2022/06/27 00:35:53;;;;;;;2.4;2.2;;;;;;;17.81;69.47168;94836.66;;;;
2022/06/27 00:36:54;;;;;;;2.4;2.2;;;;;;;17.81;69.47168;94836.66;;;;
2022/06/27 00:37:54;;;;;;;2.4;2.2;;;;;;;17.81;69.47168;94836.66;;;;
2022/06/27 00:38:55;;;;;;;2.4;2.2;;;;;;;17.81;69.47168;94836.66;;;;
2022/06/27 00:39:55;;;;;;;2.4;2.2;;;;;;;17.81;69.47168;94836.66;;;;
2022/06/27 00:40:56;;;;;;;2.55;2.2;;;;;;;17.73;69.8623;94866.72;;;;
2022/06/27 00:41:56;;;;;;;2.55;2.2;;;;;;;17.73;69.8623;94866.72;;;;
2022/06/27 00:42:57;;;;;;;2.55;2.2;;;;;;;17.73;69.8623;94866.72;;;;
2022/06/27 00:43:57;;;;;;;2.55;2.2;;;;;;;17.73;69.8623;94866.72;;;;
2022/06/27 00:44:58;;;;;;;2.55;2.2;;;;;;;17.73;69.8623;94866.72;;;;
2022/06/27 00:45:58;;;;;;;2.55;2.2;;;;;;;17.73;69.8623;94866.72;;;;
2022/06/27 00:46:59;;;;;;;2.55;2.2;;;;;;;17.73;69.8623;94866.72;;;;
2022/06/27 00:48:00;;;;;;;2.55;2.2;;;;;;;17.73;69.8623;94866.72;;;;
2022/06/27 00:49:00;;;;;;;2.55;2.2;;;;;;;17.73;69.8623;94866.72;;;;
2022/06/27 00:50:02;;;;;;;2.55;2.2;;;;;;;17.73;69.8623;94866.72;;;;
2022/06/27 00:51:03;;;;;;;2.55;2.2;;;;;;;17.73;69.8623;94866.72;;;;
2022/06/27 00:52:03;;;;;;;2.3;2.1;;;;;;;17.75;70.11816;94877.03;;;;
2022/06/27 00:53:07;;;;;;;2.3;2.1;;;;;;;17.75;70.11816;94877.03;;;;
2022/06/27 00:54:08;;;;;;;2.3;2.1;;;;;;;17.75;70.11816;94877.03;;;;
2022/06/27 00:55:08;;;;;;;2.3;2.1;;;;;;;17.75;70.11816;94877.03;;;;
2022/06/27 00:56:09;;;;;;;2.3;2.1;;;;;;;17.75;70.11816;94877.03;;;;
2022/06/27 00:57:10;;;;;;;2.3;2.1;;;;;;;17.75;70.11816;94877.03;;;;
2022/06/27 00:58:13;;;;;;;2.3;2.1;;;;;;;17.75;70.11816;94877.03;;;;
2022/06/27 00:59:13;;;;;;;2.3;2.1;;;;;;;17.75;70.11816;94877.03;;;;
2022/06/27 01:00:14;;;;;;;2.3;2.1;;;;;;;17.75;70.11816;94877.03;;;;
2022/06/27 01:01:15;;;;;;;2.3;2.1;;;;;;;17.75;70.11816;94877.03;;;;
2022/06/27 01:02:16;;;;;;;2.65;2.1;;;;;;;17.68;70.36914;94888.51;;;;
2022/06/27 01:03:16;;;;;;;2.65;2.1;;;;;;;17.68;70.36914;94888.51;;;;
2022/06/27 01:04:17;;;;;;;2.65;2.1;;;;;;;17.68;70.36914;94888.51;;;;
2022/06/27 01:05:18;;;;;;;2.65;2.1;;;;;;;17.68;70.36914;94888.51;;;;
2022/06/27 01:06:19;;;;;;;2.65;2.1;;;;;;;17.68;70.36914;94888.51;;;;
2022/06/27 01:07:19;;;;;;;2.65;2.1;;;;;;;17.68;70.36914;94888.51;;;;
2022/06/27 01:08:20;;;;;;;2.65;2.1;;;;;;;17.68;70.36914;94888.51;;;;
2022/06/27 01:09:23;;;;;;;2.65;2.1;;;;;;;17.68;70.36914;94888.51;;;;
2022/06/27 01:10:24;;;;;;;2.65;2.1;;;;;;;17.68;70.36914;94888.51;;;;
2022/06/27 01:11:25;;;;;;;2.65;2.1;;;;;;;17.68;70.36914;94888.51;;;;
2022/06/27 01:12:26;;;;;;;2.65;2.1;;;;;;;17.68;70.36914;94888.51;;;;
2022/06/27 01:13:26;;;;;;;2.4;2.2;;;;;;;17.64;70.7373;94886.89;;;;
2022/06/27 01:14:29;;;;;;;2.4;2.2;;;;;;;17.64;70.7373;94886.89;;;;
2022/06/27 01:15:30;;;;;;;2.4;2.2;;;;;;;17.64;70.7373;94886.89;;;;
2022/06/27 01:16:31;;;;;;;2.4;2.2;;;;;;;17.64;70.7373;94886.89;;;;
2022/06/27 01:17:31;;;;;;;2.4;2.2;;;;;;;17.64;70.7373;94886.89;;;;
2022/06/27 01:18:33;;;;;;;2.4;2.2;;;;;;;17.64;70.7373;94886.89;;;;
2022/06/27 01:19:33;;;;;;;2.4;2.2;;;;;;;17.64;70.7373;94886.89;;;;
2022/06/27 01:20:34;;;;;;;2.4;2.2;;;;;;;17.64;70.7373;94886.89;;;;
2022/06/27 01:21:34;;;;;;;2.4;2.2;;;;;;;17.64;70.7373;94886.89;;;;
2022/06/27 01:22:40;;;;;;;2.4;2.2;;;;;;;17.64;70.7373;94886.89;;;;
2022/06/27 01:23:41;;;;;;;2.5;2.3;;;;;;;17.5;71.15039;94901.97;;;;
2022/06/27 01:24:42;;;;;;;2.5;2.3;;;;;;;17.5;71.15039;94901.97;;;;
2022/06/27 01:25:43;;;;;;;2.5;2.3;;;;;;;17.5;71.15039;94901.97;;;;
2022/06/27 01:26:44;;;;;;;2.5;2.3;;;;;;;17.5;71.15039;94901.97;;;;
2022/06/27 01:27:45;;;;;;;2.5;2.3;;;;;;;17.5;71.15039;94901.97;;;;
2022/06/27 01:28:46;;;;;;;2.5;2.3;;;;;;;17.5;71.15039;94901.97;;;;
2022/06/27 01:29:46;;;;;;;2.5;2.3;;;;;;;17.5;71.15039;94901.97;;;;
2022/06/27 01:30:47;;;;;;;2.5;2.3;;;;;;;17.5;71.15039;94901.97;;;;
2022/06/27 01:31:48;;;;;;;2.5;2.3;;;;;;;17.5;71.15039;94901.97;;;;
2022/06/27 01:32:50;;;;;;;2.5;2.3;;;;;;;17.5;71.15039;94901.97;;;;
2022/06/27 01:33:50;;;;;;;2.5;2.3;;;;;;;17.5;71.15039;94901.97;;;;
2022/06/27 01:34:51;;;;;;;2.6;2.4;;;;;;;17.46;71.50586;94899.42;;;;
2022/06/27 01:36:41;;;;;;;2.6;2.4;;;;;;;17.46;71.50586;94899.42;;;;
2022/06/27 01:37:42;;;;;;;2.6;2.4;;;;;;;17.46;71.50586;94899.42;;;;
2022/06/27 01:38:42;;;;;;;2.6;2.4;;;;;;;17.46;71.50586;94899.42;;;;
2022/06/27 01:39:43;;;;;;;2.6;2.4;;;;;;;17.46;71.50586;94899.42;;;;
2022/06/27 01:40:44;;;;;;;2.6;2.4;;;;;;;17.46;71.50586;94899.42;;;;
2022/06/27 01:41:44;;;;;;;2.6;2.4;;;;;;;17.46;71.50586;94899.42;;;;
2022/06/27 01:42:46;;;;;;;2.6;2.4;;;;;;;17.46;71.50586;94899.42;;;;
2022/06/27 01:43:47;;;;;;;2.6;2.4;;;;;;;17.46;71.50586;94899.42;;;;
2022/06/27 01:44:48;;;;;;;2.45;2.2;;;;;;;17.36;71.84082;94899.35;;;;
2022/06/27 01:45:49;;;;;;;2.45;2.2;;;;;;;17.36;71.84082;94899.35;;;;
2022/06/27 01:46:49;;;;;;;2.45;2.2;;;;;;;17.36;71.84082;94899.35;;;;
2022/06/27 01:47:53;;;;;;;2.45;2.2;;;;;;;17.36;71.84082;94899.35;;;;
2022/06/27 01:48:54;;;;;;;2.45;2.2;;;;;;;17.36;71.84082;94899.35;;;;
2022/06/27 01:49:54;;;;;;;2.45;2.2;;;;;;;17.36;71.84082;94899.35;;;;
2022/06/27 01:50:55;;;;;;;2.45;2.2;;;;;;;17.36;71.84082;94899.35;;;;
2022/06/27 01:52:01;;;;;;;2.45;2.2;;;;;;;17.36;71.84082;94899.35;;;;
2022/06/27 01:53:03;;;;;;;2.45;2.2;;;;;;;17.36;71.84082;94899.35;;;;
2022/06/27 01:54:03;;;;;;;2.45;2.2;;;;;;;17.36;71.84082;94899.35;;;;
2022/06/27 01:55:06;;;;;;;2.45;2.2;;;;;;;17.36;71.84082;94899.35;;;;
2022/06/27 01:56:07;;;;;;;2.7;2.5;;;;;;;17.33;72.19531;94904.44;;;;
2022/06/27 01:57:08;;;;;;;2.7;2.5;;;;;;;17.33;72.19531;94904.44;;;;
2022/06/27 01:58:08;;;;;;;2.7;2.5;;;;;;;17.33;72.19531;94904.44;;;;
2022/06/27 01:59:10;;;;;;;2.7;2.5;;;;;;;17.33;72.19531;94904.44;;;;
2022/06/27 02:00:14;;;;;;;2.7;2.5;;;;;;;17.33;72.19531;94904.44;;;;
2022/06/27 02:01:16;;;;;;;2.7;2.5;;;;;;;17.33;72.19531;94904.44;;;;
2022/06/27 02:02:17;;;;;;;2.7;2.5;;;;;;;17.33;72.19531;94904.44;;;;
2022/06/27 02:03:18;;;;;;;2.7;2.5;;;;;;;17.33;72.19531;94904.44;;;;
2022/06/27 02:04:19;;;;;;;2.7;2.5;;;;;;;17.33;72.19531;94904.44;;;;
2022/06/27 02:05:19;;;;;;;2.7;2.5;;;;;;;17.33;72.19531;94904.44;;;;
2022/06/27 02:06:20;;;;;;;2.6;2.4;;;;;;;17.21;72.56934;94926.56;;;;
2022/06/27 02:07:21;;;;;;;2.6;2.4;;;;;;;17.21;72.56934;94926.56;;;;
2022/06/27 02:08:22;;;;;;;2.6;2.4;;;;;;;17.21;72.56934;94926.56;;;;
2022/06/27 02:09:25;;;;;;;2.6;2.4;;;;;;;17.21;72.56934;94926.56;;;;
2022/06/27 02:10:25;;;;;;;2.6;2.4;;;;;;;17.21;72.56934;94926.56;;;;
2022/06/27 02:11:26;;;;;;;2.6;2.4;;;;;;;17.21;72.56934;94926.56;;;;
2022/06/27 02:12:28;;;;;;;2.6;2.4;;;;;;;17.21;72.56934;94926.56;;;;
2022/06/27 02:13:30;;;;;;;2.6;2.4;;;;;;;17.21;72.56934;94926.56;;;;
2022/06/27 02:14:30;;;;;;;2.6;2.4;;;;;;;17.21;72.56934;94926.56;;;;
2022/06/27 02:15:31;;;;;;;2.6;2.4;;;;;;;17.21;72.56934;94926.56;;;;
2022/06/27 02:16:32;;;;;;;2.6;2.4;;;;;;;17.21;72.56934;94926.56;;;;
2022/06/27 02:17:32;;;;;;;2.5;2.299999;;;;;;;17.12;72.95996;94934.27;;;;
2022/06/27 02:18:33;;;;;;;2.5;2.299999;;;;;;;17.12;72.95996;94934.27;;;;
2022/06/27 02:19:34;;;;;;;2.5;2.299999;;;;;;;17.12;72.95996;94934.27;;;;
2022/06/27 02:20:35;;;;;;;2.5;2.299999;;;;;;;17.12;72.95996;94934.27;;;;
2022/06/27 02:21:35;;;;;;;2.5;2.299999;;;;;;;17.12;72.95996;94934.27;;;;
2022/06/27 02:22:36;;;;;;;2.5;2.299999;;;;;;;17.12;72.95996;94934.27;;;;
2022/06/27 02:23:36;;;;;;;2.5;2.299999;;;;;;;17.12;72.95996;94934.27;;;;
2022/06/27 02:24:37;;;;;;;2.5;2.299999;;;;;;;17.12;72.95996;94934.27;;;;
2022/06/27 02:25:38;;;;;;;2.5;2.299999;;;;;;;17.12;72.95996;94934.27;;;;
2022/06/27 02:26:38;;;;;;;2.5;2.299999;;;;;;;17.12;72.95996;94934.27;;;;
2022/06/27 02:27:41;;;;;;;2.8;2.6;;;;;;;16.98;73.35059;94940.34;;;;
2022/06/27 02:28:43;;;;;;;2.8;2.6;;;;;;;16.98;73.35059;94940.34;;;;
2022/06/27 02:29:44;;;;;;;2.8;2.6;;;;;;;16.98;73.35059;94940.34;;;;
2022/06/27 02:30:44;;;;;;;2.8;2.6;;;;;;;16.98;73.35059;94940.34;;;;
2022/06/27 02:31:45;;;;;;;2.8;2.6;;;;;;;16.98;73.35059;94940.34;;;;
2022/06/27 02:32:47;;;;;;;2.8;2.6;;;;;;;16.98;73.35059;94940.34;;;;
2022/06/27 02:33:48;;;;;;;2.8;2.6;;;;;;;16.98;73.35059;94940.34;;;;
2022/06/27 02:34:51;;;;;;;2.8;2.6;;;;;;;16.98;73.35059;94940.34;;;;
2022/06/27 02:35:52;;;;;;;2.8;2.6;;;;;;;16.98;73.35059;94940.34;;;;
2022/06/27 02:36:53;;;;;;;2.8;2.6;;;;;;;16.98;73.35059;94940.34;;;;
2022/06/27 02:37:56;;;;;;;2.6;2.4;;;;;;;17.06;74.15234;94998.08;;;;
2022/06/27 02:38:57;;;;;;;2.6;2.4;;;;;;;17.06;74.15234;94998.08;;;;
2022/06/27 02:40:00;;;;;;;2.6;2.4;;;;;;;17.06;74.15234;94998.08;;;;
2022/06/27 02:41:01;;;;;;;2.6;2.4;;;;;;;17.06;74.15234;94998.08;;;;
2022/06/27 02:42:04;;;;;;;2.6;2.4;;;;;;;17.06;74.15234;94998.08;;;;
2022/06/27 02:43:07;;;;;;;2.6;2.4;;;;;;;17.06;74.15234;94998.08;;;;
2022/06/27 02:44:10;;;;;;;2.6;2.4;;;;;;;17.06;74.15234;94998.08;;;;
2022/06/27 02:45:12;;;;;;;2.6;2.4;;;;;;;17.06;74.15234;94998.08;;;;
2022/06/27 02:46:14;;;;;;;2.6;2.4;;;;;;;17.06;74.15234;94998.08;;;;
2022/06/27 02:47:15;;;;;;;2.6;2.4;;;;;;;17.06;74.15234;94998.08;;;;
2022/06/27 02:48:19;;;;;;;2.6;2.4;;;;;;;17.06;74.15234;94998.08;;;;
2022/06/27 02:49:22;;;;;;;3.2;2.5;;;;;;;17.39;73.97754;95057.04;;;;
2022/06/27 02:50:23;;;;;;;3.2;2.5;;;;;;;17.39;73.97754;95057.04;;;;
2022/06/27 02:51:26;;;;;;;3.2;2.5;;;;;;;17.39;73.97754;95057.04;;;;
2022/06/27 02:52:35;;;;;;;3.2;2.5;;;;;;;17.39;73.97754;95057.04;;;;
2022/06/27 02:53:41;;;;;;;3.2;2.5;;;;;;;17.39;73.97754;95057.04;;;;
2022/06/27 02:54:49;;;;;;;3.2;2.5;;;;;;;17.39;73.97754;95057.04;;;;
2022/06/27 02:55:59;;;;;;;3.2;2.5;;;;;;;17.39;73.97754;95057.04;;;;
2022/06/27 02:57:02;;;;;;;3.2;2.5;;;;;;;17.39;73.97754;95057.04;;;;
2022/06/27 02:58:07;;;;;;;3.2;2.5;;;;;;;17.39;73.97754;95057.04;;;;
2022/06/27 02:59:11;;;;;;;3.2;2.5;;;;;;;17.39;73.97754;95057.04;;;;
2022/06/27 03:00:16;;;;;;;2.7;2.35;;;;;;;17.63;73.90527;95092.61;;;;
2022/06/27 03:01:17;;;;;;;2.7;2.35;;;;;;;17.63;73.90527;95092.61;;;;
2022/06/27 03:02:19;;;;;;;2.7;2.35;;;;;;;17.63;73.90527;95092.61;;;;
2022/06/27 03:03:21;;;;;;;2.7;2.35;;;;;;;17.63;73.90527;95092.61;;;;
2022/06/27 03:04:24;;;;;;;2.7;2.35;;;;;;;17.63;73.90527;95092.61;;;;
2022/06/27 03:05:24;;;;;;;2.7;2.35;;;;;;;17.63;73.90527;95092.61;;;;
2022/06/27 03:06:25;;;;;;;2.7;2.35;;;;;;;17.63;73.90527;95092.61;;;;
2022/06/27 03:07:27;;;;;;;2.7;2.35;;;;;;;17.63;73.90527;95092.61;;;;
2022/06/27 03:08:27;;;;;;;2.7;2.35;;;;;;;17.63;73.90527;95092.61;;;;
2022/06/27 03:09:38;;;;;;;2.7;2.35;;;;;;;17.63;73.90527;95092.61;;;;
2022/06/27 03:10:38;;;;;;;3.1;2.35;;;;;;;17.64;74.08496;95091;;;;
2022/06/27 03:11:39;;;;;;;3.1;2.35;;;;;;;17.64;74.08496;95091;;;;
2022/06/27 03:12:39;;;;;;;3.1;2.35;;;;;;;17.64;74.08496;95091;;;;
2022/06/27 03:13:41;;;;;;;3.1;2.35;;;;;;;17.64;74.08496;95091;;;;
2022/06/27 03:14:42;;;;;;;3.1;2.35;;;;;;;17.64;74.08496;95091;;;;
2022/06/27 03:15:42;;;;;;;3.1;2.35;;;;;;;17.64;74.08496;95091;;;;
2022/06/27 03:16:43;;;;;;;3.1;2.35;;;;;;;17.64;74.08496;95091;;;;
2022/06/27 03:17:44;;;;;;;3.1;2.35;;;;;;;17.64;74.08496;95091;;;;
2022/06/27 03:18:44;;;;;;;3.1;2.35;;;;;;;17.64;74.08496;95091;;;;
2022/06/27 03:19:46;;;;;;;3.1;2.35;;;;;;;17.64;74.08496;95091;;;;
2022/06/27 03:20:46;;;;;;;2.6;2.4;;;;;;;17.69;74.30078;95073.25;;;;
2022/06/27 03:21:47;;;;;;;2.6;2.4;;;;;;;17.69;74.30078;95073.25;;;;
2022/06/27 03:22:47;;;;;;;2.6;2.4;;;;;;;17.69;74.30078;95073.25;;;;
2022/06/27 03:23:48;;;;;;;2.6;2.4;;;;;;;17.69;74.30078;95073.25;;;;
2022/06/27 03:24:49;;;;;;;2.6;2.4;;;;;;;17.69;74.30078;95073.25;;;;
2022/06/27 03:25:49;;;;;;;2.6;2.4;;;;;;;17.69;74.30078;95073.25;;;;
2022/06/27 03:26:50;;;;;;;2.6;2.4;;;;;;;17.69;74.30078;95073.25;;;;
2022/06/27 03:27:50;;;;;;;2.6;2.4;;;;;;;17.69;74.30078;95073.25;;;;
2022/06/27 03:28:51;;;;;;;2.6;2.4;;;;;;;17.69;74.30078;95073.25;;;;
2022/06/27 03:29:52;;;;;;;2.6;2.4;;;;;;;17.69;74.30078;95073.25;;;;
2022/06/27 03:30:52;;;;;;;2.6;2.4;;;;;;;17.69;74.30078;95073.25;;;;
2022/06/27 03:31:52;;;;;;;3.2;2.65;;;;;;;17.64;74.43555;95091;;;;
2022/06/27 03:32:53;;;;;;;3.2;2.65;;;;;;;17.64;74.43555;95091;;;;
2022/06/27 03:33:54;;;;;;;3.2;2.65;;;;;;;17.64;74.43555;95091;;;;
2022/06/27 03:34:55;;;;;;;3.2;2.65;;;;;;;17.64;74.43555;95091;;;;
2022/06/27 03:35:55;;;;;;;3.2;2.65;;;;;;;17.64;74.43555;95091;;;;
2022/06/27 03:36:56;;;;;;;3.2;2.65;;;;;;;17.64;74.43555;95091;;;;
2022/06/27 03:37:57;;;;;;;3.2;2.65;;;;;;;17.64;74.43555;95091;;;;
2022/06/27 03:38:58;;;;;;;3.2;2.65;;;;;;;17.64;74.43555;95091;;;;
2022/06/27 03:39:59;;;;;;;3.2;2.65;;;;;;;17.64;74.43555;95091;;;;
2022/06/27 03:40:59;;;;;;;3.2;2.65;;;;;;;17.64;74.43555;95091;;;;
2022/06/27 03:42:00;;;;;;;3.3;2.5;;;;;;;17.63;74.55078;95103.3;;;;
2022/06/27 03:43:01;;;;;;;3.3;2.5;;;;;;;17.63;74.55078;95103.3;;;;
2022/06/27 03:44:04;;;;;;;3.3;2.5;;;;;;;17.63;74.55078;95103.3;;;;
2022/06/27 03:45:04;;;;;;;3.3;2.5;;;;;;;17.63;74.55078;95103.3;;;;
2022/06/27 03:46:06;;;;;;;3.3;2.5;;;;;;;17.63;74.55078;95103.3;;;;
2022/06/27 03:47:06;;;;;;;3.3;2.5;;;;;;;17.63;74.55078;95103.3;;;;
2022/06/27 03:48:06;;;;;;;3.3;2.5;;;;;;;17.63;74.55078;95103.3;;;;
2022/06/27 03:50:13;;;;;;;3.3;2.5;;;;;;;17.63;74.55078;95103.3;;;;
2022/06/27 03:51:14;;;;;;;3.3;2.5;;;;;;;17.63;74.55078;95103.3;;;;
2022/06/27 03:52:14;;;;;;;3.3;2.5;;;;;;;17.63;74.55078;95103.3;;;;
2022/06/27 03:53:15;;;;;;;2.55;2.35;;;;;;;17.59;74.66797;95120.79;;;;
2022/06/27 03:54:15;;;;;;;2.55;2.35;;;;;;;17.59;74.66797;95120.79;;;;
2022/06/27 03:55:16;;;;;;;2.55;2.35;;;;;;;17.59;74.66797;95120.79;;;;
2022/06/27 03:56:19;;;;;;;2.55;2.35;;;;;;;17.59;74.66797;95120.79;;;;
2022/06/27 03:57:20;;;;;;;2.55;2.35;;;;;;;17.59;74.66797;95120.79;;;;
2022/06/27 03:58:20;;;;;;;2.55;2.35;;;;;;;17.59;74.66797;95120.79;;;;
2022/06/27 03:59:21;;;;;;;2.55;2.35;;;;;;;17.59;74.66797;95120.79;;;;
2022/06/27 04:00:21;;;;;;;2.55;2.35;;;;;;;17.59;74.66797;95120.79;;;;
2022/06/27 04:01:25;;;;;;;2.55;2.35;;;;;;;17.59;74.66797;95120.79;;;;
2022/06/27 04:02:27;;;;;;;2.55;2.35;;;;;;;17.59;74.66797;95120.79;;;;
2022/06/27 04:03:28;;;;;;;2.9;2.6;;;;;;;17.66;74.75586;95113.35;;;;
2022/06/27 04:04:28;;;;;;;2.9;2.6;;;;;;;17.66;74.75586;95113.35;;;;
2022/06/27 04:05:29;;;;;;;2.9;2.6;;;;;;;17.66;74.75586;95113.35;;;;
2022/06/27 04:06:29;;;;;;;2.9;2.6;;;;;;;17.66;74.75586;95113.35;;;;
2022/06/27 04:07:30;;;;;;;2.9;2.6;;;;;;;17.66;74.75586;95113.35;;;;
2022/06/27 04:08:30;;;;;;;2.9;2.6;;;;;;;17.66;74.75586;95113.35;;;;
2022/06/27 04:09:31;;;;;;;2.9;2.6;;;;;;;17.66;74.75586;95113.35;;;;
2022/06/27 04:10:31;;;;;;;2.9;2.6;;;;;;;17.66;74.75586;95113.35;;;;
2022/06/27 04:11:32;;;;;;;2.9;2.6;;;;;;;17.66;74.75586;95113.35;;;;
2022/06/27 04:12:33;;;;;;;2.9;2.6;;;;;;;17.66;74.75586;95113.35;;;;
2022/06/27 04:13:33;;;;;;;2.9;2.6;;;;;;;17.66;74.75586;95113.35;;;;
2022/06/27 04:14:34;;;;;;;3.05;2.4;;;;;;;17.66;74.82129;95120.97;;;;
2022/06/27 04:15:34;;;;;;;3.05;2.4;;;;;;;17.66;74.82129;95120.97;;;;
2022/06/27 04:16:35;;;;;;;3.05;2.4;;;;;;;17.66;74.82129;95120.97;;;;
2022/06/27 04:17:35;;;;;;;3.05;2.4;;;;;;;17.66;74.82129;95120.97;;;;
2022/06/27 04:18:37;;;;;;;3.05;2.4;;;;;;;17.66;74.82129;95120.97;;;;
2022/06/27 04:19:37;;;;;;;3.05;2.4;;;;;;;17.66;74.82129;95120.97;;;;
2022/06/27 04:20:38;;;;;;;3.05;2.4;;;;;;;17.66;74.82129;95120.97;;;;
2022/06/27 04:21:40;;;;;;;3.05;2.4;;;;;;;17.66;74.82129;95120.97;;;;
2022/06/27 04:22:40;;;;;;;3.05;2.4;;;;;;;17.66;74.82129;95120.97;;;;
2022/06/27 04:23:41;;;;;;;3.05;2.4;;;;;;;17.66;74.82129;95120.97;;;;
2022/06/27 04:24:41;;;;;;;2.75;2.55;;;;;;;17.8;74.89941;95134.13;;;;
2022/06/27 04:25:42;;;;;;;2.75;2.55;;;;;;;17.8;74.89941;95134.13;;;;
2022/06/27 04:26:42;;;;;;;2.75;2.55;;;;;;;17.8;74.89941;95134.13;;;;
2022/06/27 04:27:43;;;;;;;2.75;2.55;;;;;;;17.8;74.89941;95134.13;;;;
2022/06/27 04:28:44;;;;;;;2.75;2.55;;;;;;;17.8;74.89941;95134.13;;;;
2022/06/27 04:29:45;;;;;;;2.75;2.55;;;;;;;17.8;74.89941;95134.13;;;;
2022/06/27 04:30:47;;;;;;;2.75;2.55;;;;;;;17.8;74.89941;95134.13;;;;
2022/06/27 04:31:48;;;;;;;2.75;2.55;;;;;;;17.8;74.89941;95134.13;;;;
2022/06/27 04:32:50;;;;;;;2.75;2.55;;;;;;;17.8;74.89941;95134.13;;;;
2022/06/27 04:33:50;;;;;;;2.75;2.55;;;;;;;17.8;74.89941;95134.13;;;;
2022/06/27 04:34:50;;;;;;;2.75;2.55;;;;;;;17.8;74.89941;95134.13;;;;
2022/06/27 04:35:51;;;;;;;2.9;2.7;;;;;;;17.94;74.82422;95111.22;;;;
2022/06/27 04:36:52;;;;;;;2.9;2.7;;;;;;;17.94;74.82422;95111.22;;;;
2022/06/27 04:37:53;;;;;;;2.9;2.7;;;;;;;17.94;74.82422;95111.22;;;;
2022/06/27 04:38:55;;;;;;;2.9;2.7;;;;;;;17.94;74.82422;95111.22;;;;
2022/06/27 04:39:56;;;;;;;2.9;2.7;;;;;;;17.94;74.82422;95111.22;;;;
2022/06/27 04:40:57;;;;;;;2.9;2.7;;;;;;;17.94;74.82422;95111.22;;;;
2022/06/27 04:41:59;;;;;;;2.9;2.7;;;;;;;17.94;74.82422;95111.22;;;;
2022/06/27 04:42:59;;;;;;;2.9;2.7;;;;;;;17.94;74.82422;95111.22;;;;
2022/06/27 04:44:00;;;;;;;2.9;2.7;;;;;;;17.94;74.82422;95111.22;;;;
2022/06/27 04:45:01;;;;;;;2.9;2.7;;;;;;;17.94;74.82422;95111.22;;;;
2022/06/27 04:46:02;;;;;;;3;2.6;;;;;;;18.15;74.69531;95122.27;;;;
2022/06/27 04:47:07;;;;;;;3;2.6;;;;;;;18.15;74.69531;95122.27;;;;
2022/06/27 04:48:09;;;;;;;3;2.6;;;;;;;18.15;74.69531;95122.27;;;;
2022/06/27 04:49:10;;;;;;;3;2.6;;;;;;;18.15;74.69531;95122.27;;;;
2022/06/27 04:50:10;;;;;;;3;2.6;;;;;;;18.15;74.69531;95122.27;;;;
2022/06/27 04:51:14;;;;;;;3;2.6;;;;;;;18.15;74.69531;95122.27;;;;
2022/06/27 04:52:16;;;;;;;3;2.6;;;;;;;18.15;74.69531;95122.27;;;;
2022/06/27 04:53:18;;;;;;;3;2.6;;;;;;;18.15;74.69531;95122.27;;;;
2022/06/27 04:54:20;;;;;;;3;2.6;;;;;;;18.15;74.69531;95122.27;;;;
2022/06/27 04:55:21;;;;;;;3;2.6;;;;;;;18.15;74.69531;95122.27;;;;
2022/06/27 04:56:22;;;;;;;3;2.6;;;;;;;18.15;74.69531;95122.27;;;;
2022/06/27 04:57:22;;;;;;;6.450001;2.8;;;;;;;18.4;74.57129;95126.51;;;;
2022/06/27 04:58:23;;;;;;;6.450001;2.8;;;;;;;18.4;74.57129;95126.51;;;;
2022/06/27 04:59:23;;;;;;;6.450001;2.8;;;;;;;18.4;74.57129;95126.51;;;;
2022/06/27 05:00:24;;;;;;;6.450001;2.8;;;;;;;18.4;74.57129;95126.51;;;;
2022/06/27 05:01:25;;;;;;;6.450001;2.8;;;;;;;18.4;74.57129;95126.51;;;;
2022/06/27 05:02:26;;;;;;;6.450001;2.8;;;;;;;18.4;74.57129;95126.51;;;;
2022/06/27 05:03:26;;;;;;;6.450001;2.8;;;;;;;18.4;74.57129;95126.51;;;;
2022/06/27 05:04:28;;;;;;;6.450001;2.8;;;;;;;18.4;74.57129;95126.51;;;;
2022/06/27 05:05:29;;;;;;;6.450001;2.8;;;;;;;18.4;74.57129;95126.51;;;;
2022/06/27 05:06:29;;;;;;;6.450001;2.8;;;;;;;18.4;74.57129;95126.51;;;;
2022/06/27 05:07:30;;;;;;;2.8;2.35;;;;;;;18.78;74.38379;95134.89;;;;
2022/06/27 05:08:31;;;;;;;2.8;2.35;;;;;;;18.78;74.38379;95134.89;;;;
2022/06/27 05:09:31;;;;;;;2.8;2.35;;;;;;;18.78;74.38379;95134.89;;;;
2022/06/27 05:10:32;;;;;;;2.8;2.35;;;;;;;18.78;74.38379;95134.89;;;;
2022/06/27 05:11:33;;;;;;;2.8;2.35;;;;;;;18.78;74.38379;95134.89;;;;
2022/06/27 05:12:33;;;;;;;2.8;2.35;;;;;;;18.78;74.38379;95134.89;;;;
2022/06/27 05:13:34;;;;;;;2.8;2.35;;;;;;;18.78;74.38379;95134.89;;;;
2022/06/27 05:14:34;;;;;;;2.8;2.35;;;;;;;18.78;74.38379;95134.89;;;;
2022/06/27 05:15:36;;;;;;;2.8;2.35;;;;;;;18.78;74.38379;95134.89;;;;
2022/06/27 05:16:38;;;;;;;2.8;2.35;;;;;;;18.78;74.38379;95134.89;;;;
2022/06/27 05:17:38;;;;;;;2.8;2.35;;;;;;;18.78;74.38379;95134.89;;;;
2022/06/27 05:18:39;;;;;;;2.55;2.35;;;;;;;19.15;74.11621;95146.69;;;;
2022/06/27 05:19:39;;;;;;;2.55;2.35;;;;;;;19.15;74.11621;95146.69;;;;
2022/06/27 05:20:42;;;;;;;2.55;2.35;;;;;;;19.15;74.11621;95146.69;;;;
2022/06/27 05:21:42;;;;;;;2.55;2.35;;;;;;;19.15;74.11621;95146.69;;;;
2022/06/27 05:22:43;;;;;;;2.55;2.35;;;;;;;19.15;74.11621;95146.69;;;;
2022/06/27 05:23:44;;;;;;;2.55;2.35;;;;;;;19.15;74.11621;95146.69;;;;
2022/06/27 05:24:44;;;;;;;2.55;2.35;;;;;;;19.15;74.11621;95146.69;;;;
2022/06/27 05:25:45;;;;;;;2.55;2.35;;;;;;;19.15;74.11621;95146.69;;;;
2022/06/27 05:26:46;;;;;;;2.55;2.35;;;;;;;19.15;74.11621;95146.69;;;;
2022/06/27 05:27:47;;;;;;;2.55;2.35;;;;;;;19.15;74.11621;95146.69;;;;
2022/06/27 05:28:48;;;;;;;2.8;2.4;;;;;;;19.56;73.82227;95146.03;;;;
2022/06/27 05:29:50;;;;;;;2.8;2.4;;;;;;;19.56;73.82227;95146.03;;;;
2022/06/27 05:30:50;;;;;;;2.8;2.4;;;;;;;19.56;73.82227;95146.03;;;;
2022/06/27 05:31:51;;;;;;;2.8;2.4;;;;;;;19.56;73.82227;95146.03;;;;
2022/06/27 05:32:52;;;;;;;2.8;2.4;;;;;;;19.56;73.82227;95146.03;;;;
2022/06/27 05:33:52;;;;;;;2.8;2.4;;;;;;;19.56;73.82227;95146.03;;;;
2022/06/27 05:34:53;;;;;;;2.8;2.4;;;;;;;19.56;73.82227;95146.03;;;;
2022/06/27 05:35:53;;;;;;;2.8;2.4;;;;;;;19.56;73.82227;95146.03;;;;
2022/06/27 05:36:54;;;;;;;2.8;2.4;;;;;;;19.56;73.82227;95146.03;;;;
2022/06/27 05:37:55;;;;;;;2.8;2.4;;;;;;;19.56;73.82227;95146.03;;;;
2022/06/27 05:38:56;;;;;;;2.8;2.4;;;;;;;19.56;73.82227;95146.03;;;;
2022/06/27 05:39:57;;;;;;;3.5;2.9;;;;;;;19.9;73.35059;95145.81;;;;
2022/06/27 05:40:58;;;;;;;3.5;2.9;;;;;;;19.9;73.35059;95145.81;;;;
2022/06/27 05:41:59;;;;;;;3.5;2.9;;;;;;;19.9;73.35059;95145.81;;;;
2022/06/27 05:43:00;;;;;;;3.5;2.9;;;;;;;19.9;73.35059;95145.81;;;;
2022/06/27 05:44:00;;;;;;;3.5;2.9;;;;;;;19.9;73.35059;95145.81;;;;
2022/06/27 05:45:01;;;;;;;3.5;2.9;;;;;;;19.9;73.35059;95145.81;;;;
2022/06/27 05:46:02;;;;;;;3.5;2.9;;;;;;;19.9;73.35059;95145.81;;;;
2022/06/27 05:47:03;;;;;;;3.5;2.9;;;;;;;19.9;73.35059;95145.81;;;;
2022/06/27 05:48:04;;;;;;;3.5;2.9;;;;;;;19.9;73.35059;95145.81;;;;
2022/06/27 05:49:06;;;;;;;3.5;2.9;;;;;;;19.9;73.35059;95145.81;;;;
2022/06/27 05:50:07;;;;;;;3.15;2.8;;;;;;;20.27;72.88379;95154.3;;;;
2022/06/27 05:51:09;;;;;;;3.15;2.8;;;;;;;20.27;72.88379;95154.3;;;;
2022/06/27 05:52:10;;;;;;;3.15;2.8;;;;;;;20.27;72.88379;95154.3;;;;
2022/06/27 05:53:10;;;;;;;3.15;2.8;;;;;;;20.27;72.88379;95154.3;;;;
2022/06/27 05:54:12;;;;;;;3.15;2.8;;;;;;;20.27;72.88379;95154.3;;;;
2022/06/27 05:55:13;;;;;;;3.15;2.8;;;;;;;20.27;72.88379;95154.3;;;;
2022/06/27 05:56:14;;;;;;;3.15;2.8;;;;;;;20.27;72.88379;95154.3;;;;